sensor_id;sensor_type;location;lat;lon;timestamp;P1;durP1;ratioP1;P2;durP2;ratioP2
13847;SDS011;6994;49.752;6.094;2023-02-10T00:00:22;17.70;;;12.35;;
13847;SDS011;6994;49.752;6.094;2023-02-10T00:02:50;20.95;;;12.82;;
13847;SDS011;6994;49.752;6.094;2023-02-10T00:05:17;19.15;;;12.55;;
13847;SDS011;6994;49.752;6.094;2023-02-10T00:07:44;19.70;;;12.93;;
13847;SDS011;6994;49.752;6.094;2023-02-10T00:10:12;19.35;;;12.40;;
13847;SDS011;6994;49.752;6.094;2023-02-10T00:12:40;18.35;;;11.73;;
13847;SDS011;6994;49.752;6.094;2023-02-10T00:15:07;22.13;;;12.65;;
13847;SDS011;6994;49.752;6.094;2023-02-10T00:17:35;21.12;;;13.38;;
13847;SDS011;6994;49.752;6.094;2023-02-10T00:20:03;23.10;;;13.98;;
13847;SDS011;6994;49.752;6.094;2023-02-10T00:22:30;24.33;;;13.35;;
13847;SDS011;6994;49.752;6.094;2023-02-10T00:24:58;23.17;;;12.55;;
13847;SDS011;6994;49.752;6.094;2023-02-10T00:27:25;24.60;;;18.67;;
13847;SDS011;6994;49.752;6.094;2023-02-10T00:29:52;24.17;;;14.70;;
13847;SDS011;6994;49.752;6.094;2023-02-10T00:32:19;22.40;;;13.70;;
13847;SDS011;6994;49.752;6.094;2023-02-10T00:34:47;22.02;;;13.57;;
13847;SDS011;6994;49.752;6.094;2023-02-10T00:37:14;19.27;;;12.65;;
13847;SDS011;6994;49.752;6.094;2023-02-10T00:39:41;19.95;;;12.82;;
13847;SDS011;6994;49.752;6.094;2023-02-10T00:42:08;18.75;;;12.80;;
13847;SDS011;6994;49.752;6.094;2023-02-10T00:44:35;24.37;;;12.70;;
13847;SDS011;6994;49.752;6.094;2023-02-10T00:47:03;19.58;;;12.55;;
13847;SDS011;6994;49.752;6.094;2023-02-10T00:49:30;17.17;;;11.50;;
13847;SDS011;6994;49.752;6.094;2023-02-10T00:51:57;21.83;;;15.33;;
13847;SDS011;6994;49.752;6.094;2023-02-10T00:54:24;19.02;;;12.90;;
13847;SDS011;6994;49.752;6.094;2023-02-10T00:56:51;21.15;;;12.27;;
13847;SDS011;6994;49.752;6.094;2023-02-10T00:59:19;18.77;;;12.37;;
13847;SDS011;6994;49.752;6.094;2023-02-10T01:01:47;16.33;;;11.15;;
13847;SDS011;6994;49.752;6.094;2023-02-10T01:04:14;16.75;;;11.48;;
13847;SDS011;6994;49.752;6.094;2023-02-10T01:06:41;17.70;;;12.55;;
13847;SDS011;6994;49.752;6.094;2023-02-10T01:09:08;21.55;;;12.07;;
13847;SDS011;6994;49.752;6.094;2023-02-10T01:11:36;18.85;;;12.88;;
13847;SDS011;6994;49.752;6.094;2023-02-10T01:14:03;20.98;;;12.48;;
13847;SDS011;6994;49.752;6.094;2023-02-10T01:16:30;17.75;;;11.68;;
13847;SDS011;6994;49.752;6.094;2023-02-10T01:18:58;21.10;;;13.25;;
13847;SDS011;6994;49.752;6.094;2023-02-10T01:21:24;19.25;;;12.95;;
13847;SDS011;6994;49.752;6.094;2023-02-10T01:23:51;22.52;;;14.43;;
13847;SDS011;6994;49.752;6.094;2023-02-10T01:26:19;19.55;;;12.25;;
13847;SDS011;6994;49.752;6.094;2023-02-10T01:28:46;18.48;;;12.18;;
13847;SDS011;6994;49.752;6.094;2023-02-10T01:31:14;23.63;;;17.13;;
13847;SDS011;6994;49.752;6.094;2023-02-10T01:33:40;17.67;;;13.40;;
13847;SDS011;6994;49.752;6.094;2023-02-10T01:36:11;18.67;;;13.30;;
13847;SDS011;6994;49.752;6.094;2023-02-10T01:38:40;19.27;;;12.52;;
13847;SDS011;6994;49.752;6.094;2023-02-10T01:41:07;23.67;;;18.10;;
13847;SDS011;6994;49.752;6.094;2023-02-10T01:43:52;18.25;;;13.20;;
13847;SDS011;6994;49.752;6.094;2023-02-10T01:46:20;17.83;;;12.90;;
13847;SDS011;6994;49.752;6.094;2023-02-10T01:48:47;18.25;;;12.85;;
13847;SDS011;6994;49.752;6.094;2023-02-10T01:51:14;19.60;;;13.48;;
13847;SDS011;6994;49.752;6.094;2023-02-10T01:53:41;21.85;;;13.25;;
13847;SDS011;6994;49.752;6.094;2023-02-10T01:56:09;16.48;;;12.73;;
13847;SDS011;6994;49.752;6.094;2023-02-10T01:58:36;18.60;;;13.05;;
13847;SDS011;6994;49.752;6.094;2023-02-10T02:01:03;19.48;;;12.65;;
13847;SDS011;6994;49.752;6.094;2023-02-10T02:03:30;22.95;;;17.37;;
13847;SDS011;6994;49.752;6.094;2023-02-10T02:05:57;23.30;;;18.50;;
13847;SDS011;6994;49.752;6.094;2023-02-10T02:08:28;22.27;;;14.52;;
13847;SDS011;6994;49.752;6.094;2023-02-10T02:10:58;21.25;;;14.60;;
13847;SDS011;6994;49.752;6.094;2023-02-10T02:22:07;20.73;;;13.32;;
13847;SDS011;6994;49.752;6.094;2023-02-10T02:27:27;21.37;;;15.00;;
13847;SDS011;6994;49.752;6.094;2023-02-10T02:30:11;21.00;;;13.20;;
13847;SDS011;6994;49.752;6.094;2023-02-10T02:32:38;23.27;;;13.57;;
13847;SDS011;6994;49.752;6.094;2023-02-10T02:35:10;19.62;;;13.85;;
13847;SDS011;6994;49.752;6.094;2023-02-10T02:37:48;26.52;;;19.83;;
13847;SDS011;6994;49.752;6.094;2023-02-10T02:40:12;22.73;;;15.68;;
13847;SDS011;6994;49.752;6.094;2023-02-10T02:42:39;22.17;;;13.75;;
13847;SDS011;6994;49.752;6.094;2023-02-10T02:45:10;22.20;;;13.93;;
13847;SDS011;6994;49.752;6.094;2023-02-10T02:47:57;21.90;;;13.68;;
13847;SDS011;6994;49.752;6.094;2023-02-10T02:50:46;19.40;;;13.02;;
13847;SDS011;6994;49.752;6.094;2023-02-10T02:55:50;16.98;;;12.18;;
13847;SDS011;6994;49.752;6.094;2023-02-10T03:01:09;20.55;;;14.57;;
13847;SDS011;6994;49.752;6.094;2023-02-10T03:03:35;20.10;;;14.32;;
13847;SDS011;6994;49.752;6.094;2023-02-10T03:06:02;18.85;;;13.93;;
13847;SDS011;6994;49.752;6.094;2023-02-10T03:08:31;22.05;;;14.07;;
13847;SDS011;6994;49.752;6.094;2023-02-10T03:10:58;20.90;;;14.20;;
13847;SDS011;6994;49.752;6.094;2023-02-10T03:13:26;22.73;;;14.10;;
13847;SDS011;6994;49.752;6.094;2023-02-10T03:15:53;17.98;;;13.07;;
13847;SDS011;6994;49.752;6.094;2023-02-10T03:18:20;20.25;;;13.05;;
13847;SDS011;6994;49.752;6.094;2023-02-10T03:20:47;21.02;;;14.15;;
13847;SDS011;6994;49.752;6.094;2023-02-10T03:23:15;20.83;;;13.80;;
13847;SDS011;6994;49.752;6.094;2023-02-10T03:25:44;20.45;;;13.15;;
13847;SDS011;6994;49.752;6.094;2023-02-10T03:28:12;23.33;;;15.00;;
13847;SDS011;6994;49.752;6.094;2023-02-10T03:30:39;24.12;;;14.82;;
13847;SDS011;6994;49.752;6.094;2023-02-10T03:33:06;19.98;;;13.05;;
13847;SDS011;6994;49.752;6.094;2023-02-10T03:35:36;19.17;;;13.57;;
13847;SDS011;6994;49.752;6.094;2023-02-10T03:38:03;25.90;;;19.98;;
13847;SDS011;6994;49.752;6.094;2023-02-10T03:40:30;22.02;;;15.40;;
13847;SDS011;6994;49.752;6.094;2023-02-10T03:42:57;20.33;;;14.35;;
13847;SDS011;6994;49.752;6.094;2023-02-10T03:45:25;21.70;;;15.07;;
13847;SDS011;6994;49.752;6.094;2023-02-10T03:47:52;19.12;;;13.82;;
13847;SDS011;6994;49.752;6.094;2023-02-10T03:50:19;22.42;;;14.70;;
13847;SDS011;6994;49.752;6.094;2023-02-10T03:52:47;23.02;;;14.18;;
13847;SDS011;6994;49.752;6.094;2023-02-10T03:55:15;21.60;;;14.73;;
13847;SDS011;6994;49.752;6.094;2023-02-10T03:57:43;22.80;;;14.98;;
13847;SDS011;6994;49.752;6.094;2023-02-10T04:00:11;22.00;;;13.93;;
13847;SDS011;6994;49.752;6.094;2023-02-10T04:02:38;22.58;;;14.90;;
13847;SDS011;6994;49.752;6.094;2023-02-10T04:05:06;22.10;;;15.70;;
13847;SDS011;6994;49.752;6.094;2023-02-10T04:07:34;21.25;;;14.90;;
13847;SDS011;6994;49.752;6.094;2023-02-10T04:10:01;21.75;;;14.87;;
13847;SDS011;6994;49.752;6.094;2023-02-10T04:12:28;21.65;;;15.25;;
13847;SDS011;6994;49.752;6.094;2023-02-10T04:14:55;20.20;;;13.35;;
13847;SDS011;6994;49.752;6.094;2023-02-10T04:17:22;23.02;;;15.55;;
13847;SDS011;6994;49.752;6.094;2023-02-10T04:19:50;25.37;;;19.15;;
13847;SDS011;6994;49.752;6.094;2023-02-10T04:22:17;22.10;;;16.35;;
13847;SDS011;6994;49.752;6.094;2023-02-10T04:24:45;23.75;;;15.43;;
13847;SDS011;6994;49.752;6.094;2023-02-10T04:27:13;20.95;;;14.27;;
13847;SDS011;6994;49.752;6.094;2023-02-10T04:29:40;20.80;;;14.27;;
13847;SDS011;6994;49.752;6.094;2023-02-10T04:32:07;21.62;;;15.32;;
13847;SDS011;6994;49.752;6.094;2023-02-10T04:34:34;24.80;;;18.33;;
13847;SDS011;6994;49.752;6.094;2023-02-10T04:37:02;21.48;;;15.02;;
13847;SDS011;6994;49.752;6.094;2023-02-10T04:39:29;22.98;;;19.08;;
13847;SDS011;6994;49.752;6.094;2023-02-10T04:41:56;23.80;;;16.42;;
13847;SDS011;6994;49.752;6.094;2023-02-10T04:44:23;18.92;;;14.00;;
13847;SDS011;6994;49.752;6.094;2023-02-10T04:46:51;20.42;;;14.07;;
13847;SDS011;6994;49.752;6.094;2023-02-10T04:49:19;20.65;;;14.10;;
13847;SDS011;6994;49.752;6.094;2023-02-10T04:51:47;19.83;;;13.10;;
13847;SDS011;6994;49.752;6.094;2023-02-10T04:54:14;20.95;;;13.82;;
13847;SDS011;6994;49.752;6.094;2023-02-10T04:56:42;18.70;;;13.98;;
13847;SDS011;6994;49.752;6.094;2023-02-10T04:59:09;23.77;;;14.38;;
13847;SDS011;6994;49.752;6.094;2023-02-10T05:01:36;21.90;;;14.65;;
13847;SDS011;6994;49.752;6.094;2023-02-10T05:04:03;25.80;;;19.63;;
13847;SDS011;6994;49.752;6.094;2023-02-10T05:06:30;25.98;;;15.43;;
13847;SDS011;6994;49.752;6.094;2023-02-10T05:08:57;22.05;;;13.62;;
13847;SDS011;6994;49.752;6.094;2023-02-10T05:11:25;23.70;;;14.85;;
13847;SDS011;6994;49.752;6.094;2023-02-10T05:13:53;22.85;;;14.27;;
13847;SDS011;6994;49.752;6.094;2023-02-10T05:16:21;18.87;;;14.27;;
13847;SDS011;6994;49.752;6.094;2023-02-10T05:18:49;22.52;;;13.50;;
13847;SDS011;6994;49.752;6.094;2023-02-10T05:21:16;21.30;;;14.95;;
13847;SDS011;6994;49.752;6.094;2023-02-10T05:23:43;20.48;;;14.77;;
13847;SDS011;6994;49.752;6.094;2023-02-10T05:26:10;22.62;;;13.98;;
13847;SDS011;6994;49.752;6.094;2023-02-10T05:28:37;21.65;;;14.18;;
13847;SDS011;6994;49.752;6.094;2023-02-10T05:31:05;21.23;;;14.18;;
13847;SDS011;6994;49.752;6.094;2023-02-10T05:33:32;23.50;;;14.90;;
13847;SDS011;6994;49.752;6.094;2023-02-10T05:36:00;19.77;;;13.35;;
13847;SDS011;6994;49.752;6.094;2023-02-10T05:38:27;20.48;;;14.30;;
13847;SDS011;6994;49.752;6.094;2023-02-10T05:40:54;19.73;;;13.50;;
13847;SDS011;6994;49.752;6.094;2023-02-10T05:43:21;23.75;;;15.15;;
13847;SDS011;6994;49.752;6.094;2023-02-10T05:45:49;22.73;;;15.27;;
13847;SDS011;6994;49.752;6.094;2023-02-10T05:48:16;23.33;;;19.03;;
13847;SDS011;6994;49.752;6.094;2023-02-10T05:50:43;25.95;;;15.93;;
13847;SDS011;6994;49.752;6.094;2023-02-10T05:53:10;22.95;;;16.45;;
13847;SDS011;6994;49.752;6.094;2023-02-10T05:55:38;21.65;;;15.00;;
13847;SDS011;6994;49.752;6.094;2023-02-10T05:58:05;20.12;;;14.57;;
13847;SDS011;6994;49.752;6.094;2023-02-10T06:00:33;20.42;;;14.30;;
13847;SDS011;6994;49.752;6.094;2023-02-10T06:03:01;21.45;;;14.77;;
13847;SDS011;6994;49.752;6.094;2023-02-10T06:05:28;20.42;;;14.13;;
13847;SDS011;6994;49.752;6.094;2023-02-10T06:07:55;21.83;;;13.77;;
13847;SDS011;6994;49.752;6.094;2023-02-10T06:10:22;22.33;;;15.15;;
13847;SDS011;6994;49.752;6.094;2023-02-10T06:12:49;23.98;;;15.60;;
13847;SDS011;6994;49.752;6.094;2023-02-10T06:15:17;23.17;;;14.93;;
13847;SDS011;6994;49.752;6.094;2023-02-10T06:17:44;21.95;;;15.07;;
13847;SDS011;6994;49.752;6.094;2023-02-10T06:20:11;20.52;;;14.40;;
13847;SDS011;6994;49.752;6.094;2023-02-10T06:22:39;25.35;;;15.73;;
13847;SDS011;6994;49.752;6.094;2023-02-10T06:25:06;20.70;;;14.52;;
13847;SDS011;6994;49.752;6.094;2023-02-10T06:27:33;22.98;;;14.38;;
13847;SDS011;6994;49.752;6.094;2023-02-10T06:30:01;23.45;;;14.82;;
13847;SDS011;6994;49.752;6.094;2023-02-10T06:32:28;24.12;;;15.32;;
13847;SDS011;6994;49.752;6.094;2023-02-10T06:34:55;25.77;;;21.30;;
13847;SDS011;6994;49.752;6.094;2023-02-10T06:37:22;25.00;;;16.65;;
13847;SDS011;6994;49.752;6.094;2023-02-10T06:39:49;25.35;;;16.67;;
13847;SDS011;6994;49.752;6.094;2023-02-10T06:42:17;24.17;;;16.90;;
13847;SDS011;6994;49.752;6.094;2023-02-10T06:44:45;27.42;;;16.23;;
13847;SDS011;6994;49.752;6.094;2023-02-10T06:47:13;25.33;;;15.90;;
13847;SDS011;6994;49.752;6.094;2023-02-10T06:49:40;24.05;;;16.10;;
13847;SDS011;6994;49.752;6.094;2023-02-10T06:52:07;27.20;;;20.73;;
13847;SDS011;6994;49.752;6.094;2023-02-10T06:54:34;22.52;;;17.33;;
13847;SDS011;6994;49.752;6.094;2023-02-10T06:57:01;21.52;;;15.27;;
13847;SDS011;6994;49.752;6.094;2023-02-10T06:59:29;22.83;;;15.80;;
13847;SDS011;6994;49.752;6.094;2023-02-10T07:01:56;22.48;;;16.80;;
13847;SDS011;6994;49.752;6.094;2023-02-10T07:04:23;27.20;;;14.75;;
13847;SDS011;6994;49.752;6.094;2023-02-10T07:06:50;22.83;;;14.55;;
13847;SDS011;6994;49.752;6.094;2023-02-10T07:09:18;24.90;;;16.83;;
13847;SDS011;6994;49.752;6.094;2023-02-10T07:11:46;22.80;;;16.08;;
13847;SDS011;6994;49.752;6.094;2023-02-10T07:14:13;24.83;;;15.80;;
13847;SDS011;6994;49.752;6.094;2023-02-10T07:16:41;26.67;;;17.00;;
13847;SDS011;6994;49.752;6.094;2023-02-10T07:19:08;25.30;;;20.12;;
13847;SDS011;6994;49.752;6.094;2023-02-10T07:21:35;25.92;;;18.12;;
13847;SDS011;6994;49.752;6.094;2023-02-10T07:24:02;25.10;;;20.25;;
13847;SDS011;6994;49.752;6.094;2023-02-10T07:26:29;23.10;;;17.00;;
13847;SDS011;6994;49.752;6.094;2023-02-10T07:28:57;20.50;;;15.65;;
13847;SDS011;6994;49.752;6.094;2023-02-10T07:31:24;23.52;;;16.62;;
13847;SDS011;6994;49.752;6.094;2023-02-10T07:33:51;22.35;;;15.52;;
13847;SDS011;6994;49.752;6.094;2023-02-10T07:36:18;20.73;;;15.05;;
13847;SDS011;6994;49.752;6.094;2023-02-10T07:38:45;19.87;;;13.35;;
13847;SDS011;6994;49.752;6.094;2023-02-10T07:41:13;22.98;;;15.82;;
13847;SDS011;6994;49.752;6.094;2023-02-10T07:43:40;22.77;;;15.57;;
13847;SDS011;6994;49.752;6.094;2023-02-10T07:46:07;23.33;;;18.97;;
13847;SDS011;6994;49.752;6.094;2023-02-10T07:48:34;23.65;;;17.75;;
13847;SDS011;6994;49.752;6.094;2023-02-10T07:51:02;19.67;;;14.95;;
13847;SDS011;6994;49.752;6.094;2023-02-10T07:53:30;29.00;;;16.40;;
13847;SDS011;6994;49.752;6.094;2023-02-10T07:55:58;23.05;;;15.65;;
13847;SDS011;6994;49.752;6.094;2023-02-10T07:58:25;24.33;;;16.02;;
13847;SDS011;6994;49.752;6.094;2023-02-10T08:00:53;22.60;;;15.75;;
13847;SDS011;6994;49.752;6.094;2023-02-10T08:03:20;20.92;;;14.63;;
13847;SDS011;6994;49.752;6.094;2023-02-10T08:05:47;21.37;;;14.43;;
13847;SDS011;6994;49.752;6.094;2023-02-10T08:08:14;21.45;;;14.43;;
13847;SDS011;6994;49.752;6.094;2023-02-10T08:10:41;24.17;;;18.73;;
13847;SDS011;6994;49.752;6.094;2023-02-10T08:13:09;20.10;;;15.90;;
13847;SDS011;6994;49.752;6.094;2023-02-10T08:15:36;22.33;;;16.20;;
13847;SDS011;6994;49.752;6.094;2023-02-10T08:18:04;22.62;;;16.25;;
13847;SDS011;6994;49.752;6.094;2023-02-10T08:20:32;27.75;;;17.40;;
13847;SDS011;6994;49.752;6.094;2023-02-10T08:23:00;24.85;;;15.85;;
13847;SDS011;6994;49.752;6.094;2023-02-10T08:25:27;27.35;;;17.15;;
13847;SDS011;6994;49.752;6.094;2023-02-10T08:27:54;32.90;;;16.92;;
13847;SDS011;6994;49.752;6.094;2023-02-10T08:30:21;30.40;;;20.30;;
13847;SDS011;6994;49.752;6.094;2023-02-10T08:32:49;25.17;;;17.48;;
13847;SDS011;6994;49.752;6.094;2023-02-10T08:35:16;26.35;;;17.15;;
13847;SDS011;6994;49.752;6.094;2023-02-10T08:37:43;24.33;;;16.37;;
13847;SDS011;6994;49.752;6.094;2023-02-10T08:40:10;23.08;;;15.48;;
13847;SDS011;6994;49.752;6.094;2023-02-10T08:42:38;24.30;;;15.75;;
13847;SDS011;6994;49.752;6.094;2023-02-10T08:45:06;22.42;;;15.90;;
13847;SDS011;6994;49.752;6.094;2023-02-10T08:47:34;26.20;;;19.10;;
13847;SDS011;6994;49.752;6.094;2023-02-10T08:50:02;22.20;;;16.90;;
13847;SDS011;6994;49.752;6.094;2023-02-10T08:52:29;24.52;;;17.33;;
13847;SDS011;6994;49.752;6.094;2023-02-10T08:54:56;23.02;;;16.27;;
13847;SDS011;6994;49.752;6.094;2023-02-10T08:57:23;25.80;;;19.60;;
13847;SDS011;6994;49.752;6.094;2023-02-10T08:59:50;28.05;;;18.35;;
13847;SDS011;6994;49.752;6.094;2023-02-10T09:02:18;30.70;;;20.17;;
13847;SDS011;6994;49.752;6.094;2023-02-10T09:04:45;25.25;;;16.05;;
13847;SDS011;6994;49.752;6.094;2023-02-10T09:07:12;27.20;;;18.17;;
13847;SDS011;6994;49.752;6.094;2023-02-10T09:09:40;27.23;;;17.15;;
13847;SDS011;6994;49.752;6.094;2023-02-10T09:12:07;27.20;;;16.42;;
13847;SDS011;6994;49.752;6.094;2023-02-10T09:14:34;26.37;;;16.73;;
13847;SDS011;6994;49.752;6.094;2023-02-10T09:17:01;25.65;;;17.55;;
13847;SDS011;6994;49.752;6.094;2023-02-10T09:21:17;25.88;;;18.70;;
13847;SDS011;6994;49.752;6.094;2023-02-10T09:23:44;27.35;;;17.45;;
13847;SDS011;6994;49.752;6.094;2023-02-10T09:26:11;28.73;;;18.20;;
13847;SDS011;6994;49.752;6.094;2023-02-10T09:28:38;26.23;;;16.87;;
13847;SDS011;6994;49.752;6.094;2023-02-10T09:31:06;27.02;;;17.20;;
13847;SDS011;6994;49.752;6.094;2023-02-10T09:33:33;27.37;;;18.25;;
13847;SDS011;6994;49.752;6.094;2023-02-10T09:36:02;24.73;;;16.60;;
13847;SDS011;6994;49.752;6.094;2023-02-10T09:38:30;26.58;;;17.40;;
13847;SDS011;6994;49.752;6.094;2023-02-10T09:43:55;32.85;;;18.42;;
13847;SDS011;6994;49.752;6.094;2023-02-10T09:46:36;28.65;;;18.58;;
13847;SDS011;6994;49.752;6.094;2023-02-10T09:52:20;30.25;;;20.27;;
13847;SDS011;6994;49.752;6.094;2023-02-10T09:54:45;29.45;;;18.77;;
13847;SDS011;6994;49.752;6.094;2023-02-10T09:57:16;27.27;;;22.67;;
13847;SDS011;6994;49.752;6.094;2023-02-10T09:59:42;27.58;;;20.20;;
13847;SDS011;6994;49.752;6.094;2023-02-10T10:02:12;27.75;;;18.77;;
13847;SDS011;6994;49.752;6.094;2023-02-10T10:04:39;32.67;;;20.52;;
13847;SDS011;6994;49.752;6.094;2023-02-10T10:07:40;25.12;;;18.50;;
13847;SDS011;6994;49.752;6.094;2023-02-10T10:09:44;31.98;;;20.40;;
13847;SDS011;6994;49.752;6.094;2023-02-10T10:12:11;31.27;;;19.80;;
13847;SDS011;6994;49.752;6.094;2023-02-10T10:14:40;32.33;;;19.90;;
13847;SDS011;6994;49.752;6.094;2023-02-10T10:20:03;34.88;;;20.45;;
13847;SDS011;6994;49.752;6.094;2023-02-10T10:25:38;31.00;;;20.00;;
13847;SDS011;6994;49.752;6.094;2023-02-10T10:28:26;40.08;;;28.00;;
13847;SDS011;6994;49.752;6.094;2023-02-10T10:33:37;34.33;;;22.33;;
13847;SDS011;6994;49.752;6.094;2023-02-10T10:36:02;37.60;;;22.62;;
13847;SDS011;6994;49.752;6.094;2023-02-10T10:38:32;35.60;;;22.10;;
13847;SDS011;6994;49.752;6.094;2023-02-10T10:41:00;40.97;;;21.17;;
13847;SDS011;6994;49.752;6.094;2023-02-10T10:43:28;35.83;;;21.42;;
13847;SDS011;6994;49.752;6.094;2023-02-10T10:46:03;32.78;;;21.25;;
13847;SDS011;6994;49.752;6.094;2023-02-10T10:48:24;34.03;;;20.08;;
13847;SDS011;6994;49.752;6.094;2023-02-10T10:50:52;32.78;;;21.65;;
13847;SDS011;6994;49.752;6.094;2023-02-10T10:53:30;41.45;;;21.62;;
13847;SDS011;6994;49.752;6.094;2023-02-10T10:55:51;39.65;;;22.80;;
13847;SDS011;6994;49.752;6.094;2023-02-10T11:00:58;40.42;;;25.30;;
13847;SDS011;6994;49.752;6.094;2023-02-10T11:03:25;39.95;;;24.45;;
13847;SDS011;6994;49.752;6.094;2023-02-10T11:05:57;48.55;;;28.08;;
13847;SDS011;6994;49.752;6.094;2023-02-10T11:08:30;58.67;;;29.90;;
13847;SDS011;6994;49.752;6.094;2023-02-10T11:10:56;51.37;;;26.65;;
13847;SDS011;6994;49.752;6.094;2023-02-10T11:13:24;54.33;;;28.27;;
13847;SDS011;6994;49.752;6.094;2023-02-10T11:15:57;55.42;;;27.98;;
13847;SDS011;6994;49.752;6.094;2023-02-10T11:18:20;64.45;;;32.33;;
13847;SDS011;6994;49.752;6.094;2023-02-10T11:20:59;53.63;;;29.48;;
13847;SDS011;6994;49.752;6.094;2023-02-10T11:23:27;56.08;;;28.92;;
13847;SDS011;6994;49.752;6.094;2023-02-10T11:25:55;55.58;;;28.40;;
13847;SDS011;6994;49.752;6.094;2023-02-10T11:28:23;52.38;;;28.02;;
13847;SDS011;6994;49.752;6.094;2023-02-10T11:30:53;63.03;;;37.53;;
13847;SDS011;6994;49.752;6.094;2023-02-10T11:33:21;59.83;;;31.95;;
13847;SDS011;6994;49.752;6.094;2023-02-10T11:35:52;51.55;;;27.98;;
13847;SDS011;6994;49.752;6.094;2023-02-10T11:38:16;52.60;;;28.00;;
13847;SDS011;6994;49.752;6.094;2023-02-10T11:40:51;50.40;;;27.45;;
13847;SDS011;6994;49.752;6.094;2023-02-10T11:43:17;58.25;;;27.67;;
13847;SDS011;6994;49.752;6.094;2023-02-10T11:45:54;47.70;;;27.15;;
13847;SDS011;6994;49.752;6.094;2023-02-10T11:48:22;56.88;;;28.80;;
13847;SDS011;6994;49.752;6.094;2023-02-10T11:50:48;53.90;;;27.70;;
13847;SDS011;6994;49.752;6.094;2023-02-10T11:53:21;54.72;;;35.15;;
13847;SDS011;6994;49.752;6.094;2023-02-10T11:56:07;55.45;;;29.75;;
13847;SDS011;6994;49.752;6.094;2023-02-10T12:01:43;54.65;;;28.33;;
13847;SDS011;6994;49.752;6.094;2023-02-10T12:13:40;44.67;;;24.75;;
13847;SDS011;6994;49.752;6.094;2023-02-10T12:15:38;41.65;;;23.52;;
13847;SDS011;6994;49.752;6.094;2023-02-10T12:24:09;39.72;;;23.50;;
13847;SDS011;6994;49.752;6.094;2023-02-10T12:26:53;42.95;;;24.12;;
13847;SDS011;6994;49.752;6.094;2023-02-10T12:29:38;43.78;;;24.08;;
13847;SDS011;6994;49.752;6.094;2023-02-10T12:43:23;45.17;;;24.92;;
13847;SDS011;6994;49.752;6.094;2023-02-10T12:46:03;41.30;;;24.42;;
13847;SDS011;6994;49.752;6.094;2023-02-10T12:48:41;39.08;;;23.42;;
13847;SDS011;6994;49.752;6.094;2023-02-10T12:54:14;38.05;;;25.27;;
13847;SDS011;6994;49.752;6.094;2023-02-10T12:57:00;31.48;;;20.60;;
13847;SDS011;6994;49.752;6.094;2023-02-10T13:02:13;39.42;;;24.37;;
13847;SDS011;6994;49.752;6.094;2023-02-10T13:04:39;36.15;;;19.17;;
13847;SDS011;6994;49.752;6.094;2023-02-10T13:07:08;40.00;;;20.45;;
13847;SDS011;6994;49.752;6.094;2023-02-10T13:09:49;33.83;;;19.75;;
13847;SDS011;6994;49.752;6.094;2023-02-10T13:14:48;33.35;;;18.42;;
13847;SDS011;6994;49.752;6.094;2023-02-10T13:17:15;31.95;;;19.40;;
13847;SDS011;6994;49.752;6.094;2023-02-10T13:19:46;33.88;;;21.90;;
13847;SDS011;6994;49.752;6.094;2023-02-10T13:22:20;32.53;;;20.90;;
13847;SDS011;6994;49.752;6.094;2023-02-10T13:25:00;30.00;;;20.62;;
13847;SDS011;6994;49.752;6.094;2023-02-10T13:35:45;33.15;;;24.52;;
13847;SDS011;6994;49.752;6.094;2023-02-10T13:38:16;31.77;;;20.77;;
13847;SDS011;6994;49.752;6.094;2023-02-10T13:40:52;27.30;;;19.05;;
13847;SDS011;6994;49.752;6.094;2023-02-10T13:43:24;29.80;;;19.92;;
13847;SDS011;6994;49.752;6.094;2023-02-10T13:45:58;36.78;;;19.92;;
13847;SDS011;6994;49.752;6.094;2023-02-10T13:48:26;29.25;;;19.25;;
13847;SDS011;6994;49.752;6.094;2023-02-10T13:50:54;31.52;;;18.40;;
13847;SDS011;6994;49.752;6.094;2023-02-10T13:53:28;27.60;;;18.52;;
13847;SDS011;6994;49.752;6.094;2023-02-10T13:58:49;32.40;;;24.30;;
13847;SDS011;6994;49.752;6.094;2023-02-10T14:01:30;30.23;;;19.98;;
13847;SDS011;6994;49.752;6.094;2023-02-10T14:03:59;29.90;;;19.90;;
13847;SDS011;6994;49.752;6.094;2023-02-10T14:06:33;32.42;;;24.37;;
13847;SDS011;6994;49.752;6.094;2023-02-10T14:09:12;33.30;;;20.65;;
13847;SDS011;6994;49.752;6.094;2023-02-10T14:11:42;26.83;;;18.98;;
13847;SDS011;6994;49.752;6.094;2023-02-10T14:14:16;35.50;;;24.73;;
13847;SDS011;6994;49.752;6.094;2023-02-10T14:16:43;35.88;;;25.25;;
13847;SDS011;6994;49.752;6.094;2023-02-10T14:19:30;31.75;;;19.23;;
13847;SDS011;6994;49.752;6.094;2023-02-10T14:21:54;38.90;;;20.70;;
13847;SDS011;6994;49.752;6.094;2023-02-10T14:24:22;30.37;;;20.42;;
13847;SDS011;6994;49.752;6.094;2023-02-10T14:26:49;31.35;;;23.73;;
13847;SDS011;6994;49.752;6.094;2023-02-10T14:29:17;26.40;;;19.65;;
13847;SDS011;6994;49.752;6.094;2023-02-10T14:31:44;33.95;;;18.33;;
13847;SDS011;6994;49.752;6.094;2023-02-10T14:34:30;34.95;;;20.12;;
13847;SDS011;6994;49.752;6.094;2023-02-10T14:36:57;24.00;;;17.00;;
13847;SDS011;6994;49.752;6.094;2023-02-10T14:39:25;26.62;;;16.67;;
13847;SDS011;6994;49.752;6.094;2023-02-10T14:41:51;27.73;;;16.45;;
13847;SDS011;6994;49.752;6.094;2023-02-10T14:44:25;25.08;;;16.05;;
13847;SDS011;6994;49.752;6.094;2023-02-10T14:46:54;32.95;;;20.98;;
13847;SDS011;6994;49.752;6.094;2023-02-10T14:49:22;27.10;;;17.85;;
13847;SDS011;6994;49.752;6.094;2023-02-10T14:51:49;26.48;;;16.73;;
13847;SDS011;6994;49.752;6.094;2023-02-10T14:54:17;23.98;;;15.77;;
13847;SDS011;6994;49.752;6.094;2023-02-10T14:56:56;24.90;;;16.45;;
13847;SDS011;6994;49.752;6.094;2023-02-10T14:59:24;24.77;;;16.70;;
13847;SDS011;6994;49.752;6.094;2023-02-10T15:01:47;28.08;;;16.75;;
13847;SDS011;6994;49.752;6.094;2023-02-10T15:04:15;22.85;;;16.00;;
13847;SDS011;6994;49.752;6.094;2023-02-10T15:06:43;26.90;;;17.80;;
13847;SDS011;6994;49.752;6.094;2023-02-10T15:09:19;32.85;;;17.95;;
13847;SDS011;6994;49.752;6.094;2023-02-10T15:11:47;29.12;;;17.98;;
13847;SDS011;6994;49.752;6.094;2023-02-10T15:14:34;30.17;;;18.30;;
13847;SDS011;6994;49.752;6.094;2023-02-10T15:17:03;30.52;;;17.87;;
13847;SDS011;6994;49.752;6.094;2023-02-10T15:19:29;26.37;;;17.70;;
13847;SDS011;6994;49.752;6.094;2023-02-10T15:21:56;23.80;;;16.90;;
13847;SDS011;6994;49.752;6.094;2023-02-10T15:24:27;28.30;;;21.77;;
13847;SDS011;6994;49.752;6.094;2023-02-10T15:29:41;21.37;;;17.15;;
13847;SDS011;6994;49.752;6.094;2023-02-10T15:32:18;27.80;;;18.25;;
13847;SDS011;6994;49.752;6.094;2023-02-10T15:34:45;26.12;;;16.08;;
13847;SDS011;6994;49.752;6.094;2023-02-10T15:37:19;22.10;;;16.52;;
13847;SDS011;6994;49.752;6.094;2023-02-10T15:39:55;28.40;;;18.65;;
13847;SDS011;6994;49.752;6.094;2023-02-10T15:42:22;27.92;;;20.92;;
13847;SDS011;6994;49.752;6.094;2023-02-10T15:44:59;25.70;;;17.48;;
13847;SDS011;6994;49.752;6.094;2023-02-10T15:49:43;26.35;;;17.58;;
13847;SDS011;6994;49.752;6.094;2023-02-10T15:52:19;28.05;;;21.60;;
13847;SDS011;6994;49.752;6.094;2023-02-10T15:54:37;24.98;;;16.87;;
13847;SDS011;6994;49.752;6.094;2023-02-10T15:57:05;26.00;;;17.48;;
13847;SDS011;6994;49.752;6.094;2023-02-10T15:59:32;26.08;;;17.85;;
13847;SDS011;6994;49.752;6.094;2023-02-10T16:02:01;22.23;;;16.02;;
13847;SDS011;6994;49.752;6.094;2023-02-10T16:04:28;25.95;;;16.77;;
13847;SDS011;6994;49.752;6.094;2023-02-10T16:06:56;26.10;;;17.67;;
13847;SDS011;6994;49.752;6.094;2023-02-10T16:09:23;30.33;;;17.67;;
13847;SDS011;6994;49.752;6.094;2023-02-10T16:11:50;26.60;;;17.17;;